Terminal Aerodrome Forecast
Issued by NWS

Home | Current Version | Previous Version | Text Only | Print | Product List | Glossary Off
Versions: 1 2 3 4 5 6 7 8 9 10 11 12 13 14 15 16 17

000
FTUS43 KTOP 041342 AAA
TAFMHK
TAF AMD
KMHK 041342Z 0414/0512 VRB03KT 5SM BR BKN005
     FM042000 28006KT P6SM BKN010
     FM042200 20005KT P6SM SKC=

USA.gov is the U.S. government's official web portal to all federal, state and local government web resources and services.